sensor_id;sensor_type;location;lat;lon;timestamp;pressure;altitude;pressure_sealevel;temperature;humidity
77171;BME280;66144;50.020;14.422;2023-04-16T00:01:00;98630.06;;;5.46;80.45
77171;BME280;66144;50.020;14.422;2023-04-16T00:03:25;98631.28;;;5.44;81.03
77171;BME280;66144;50.020;14.422;2023-04-16T00:05:51;98630.13;;;5.40;81.09
77171;BME280;66144;50.020;14.422;2023-04-16T00:08:20;98635.03;;;5.48;81.38
77171;BME280;66144;50.020;14.422;2023-04-16T00:10:45;98634.75;;;5.56;81.41
77171;BME280;66144;50.020;14.422;2023-04-16T00:13:10;98638.47;;;5.60;81.65
77171;BME280;66144;50.020;14.422;2023-04-16T00:15:38;98633.44;;;5.65;82.25
77171;BME280;66144;50.020;14.422;2023-04-16T00:18:04;98634.38;;;5.71;82.26
77171;BME280;66144;50.020;14.422;2023-04-16T00:20:29;98630.94;;;5.77;82.17
77171;BME280;66144;50.020;14.422;2023-04-16T00:22:54;98624.84;;;5.83;82.33
77171;BME280;66144;50.020;14.422;2023-04-16T00:25:20;98619.44;;;5.84;81.83
77171;BME280;66144;50.020;14.422;2023-04-16T00:27:45;98621.00;;;5.92;81.75
77171;BME280;66144;50.020;14.422;2023-04-16T00:30:10;98623.16;;;5.95;81.93
77171;BME280;66144;50.020;14.422;2023-04-16T00:32:36;98624.72;;;5.96;81.41
77171;BME280;66144;50.020;14.422;2023-04-16T00:35:01;98625.84;;;6.00;81.45
77171;BME280;66144;50.020;14.422;2023-04-16T00:37:26;98623.63;;;6.04;81.32
77171;BME280;66144;50.020;14.422;2023-04-16T00:39:52;98617.56;;;6.10;81.29
77171;BME280;66144;50.020;14.422;2023-04-16T00:42:17;98625.91;;;6.12;81.46
77171;BME280;66144;50.020;14.422;2023-04-16T00:44:42;98621.94;;;6.09;81.04
77171;BME280;66144;50.020;14.422;2023-04-16T00:47:08;98620.38;;;6.08;81.26
77171;BME280;66144;50.020;14.422;2023-04-16T00:49:33;98618.56;;;6.09;81.02
77171;BME280;66144;50.020;14.422;2023-04-16T00:52:00;98622.19;;;6.19;81.07
77171;BME280;66144;50.020;14.422;2023-04-16T00:54:27;98618.72;;;6.26;80.75
77171;BME280;66144;50.020;14.422;2023-04-16T00:56:53;98620.09;;;6.28;80.89
77171;BME280;66144;50.020;14.422;2023-04-16T00:59:18;98621.03;;;6.34;80.82
77171;BME280;66144;50.020;14.422;2023-04-16T01:01:44;98617.97;;;6.37;80.70
77171;BME280;66144;50.020;14.422;2023-04-16T01:04:09;98617.28;;;6.41;80.14
77171;BME280;66144;50.020;14.422;2023-04-16T01:06:35;98615.63;;;6.47;80.57
77171;BME280;66144;50.020;14.422;2023-04-16T01:09:00;98616.78;;;6.51;80.00
77171;BME280;66144;50.020;14.422;2023-04-16T01:11:25;98617.00;;;6.49;80.49
77171;BME280;66144;50.020;14.422;2023-04-16T01:13:51;98618.91;;;6.54;80.05
77171;BME280;66144;50.020;14.422;2023-04-16T01:16:16;98625.22;;;6.58;79.78
77171;BME280;66144;50.020;14.422;2023-04-16T01:18:42;98628.38;;;6.60;79.65
77171;BME280;66144;50.020;14.422;2023-04-16T01:21:07;98637.75;;;6.61;80.06
77171;BME280;66144;50.020;14.422;2023-04-16T01:23:33;98634.16;;;6.62;78.96
77171;BME280;66144;50.020;14.422;2023-04-16T01:25:58;98634.72;;;6.64;79.66
77171;BME280;66144;50.020;14.422;2023-04-16T01:28:23;98633.47;;;6.67;79.73
77171;BME280;66144;50.020;14.422;2023-04-16T01:30:49;98641.03;;;6.68;79.21
77171;BME280;66144;50.020;14.422;2023-04-16T01:33:14;98641.84;;;6.69;79.92
77171;BME280;66144;50.020;14.422;2023-04-16T01:35:40;98642.19;;;6.72;79.70
77171;BME280;66144;50.020;14.422;2023-04-16T01:38:07;98648.38;;;6.71;79.04
77171;BME280;66144;50.020;14.422;2023-04-16T01:40:36;98644.31;;;6.75;79.36
77171;BME280;66144;50.020;14.422;2023-04-16T01:43:02;98645.91;;;6.76;79.23
77171;BME280;66144;50.020;14.422;2023-04-16T01:45:28;98648.63;;;6.81;79.07
77171;BME280;66144;50.020;14.422;2023-04-16T01:47:55;98642.06;;;6.79;79.36
77171;BME280;66144;50.020;14.422;2023-04-16T01:50:21;98639.25;;;6.80;79.37
77171;BME280;66144;50.020;14.422;2023-04-16T01:52:47;98644.22;;;6.82;79.52
77171;BME280;66144;50.020;14.422;2023-04-16T01:55:12;98641.97;;;6.85;79.33
77171;BME280;66144;50.020;14.422;2023-04-16T01:57:38;98639.25;;;6.80;78.73
77171;BME280;66144;50.020;14.422;2023-04-16T02:00:03;98638.69;;;6.78;78.52
77171;BME280;66144;50.020;14.422;2023-04-16T02:02:29;98648.97;;;6.73;78.66
77171;BME280;66144;50.020;14.422;2023-04-16T02:04:54;98644.88;;;6.77;78.67
77171;BME280;66144;50.020;14.422;2023-04-16T02:07:23;98646.25;;;6.80;78.59
77171;BME280;66144;50.020;14.422;2023-04-16T02:09:49;98657.97;;;6.82;78.44
77171;BME280;66144;50.020;14.422;2023-04-16T02:12:15;98644.09;;;6.77;77.93
77171;BME280;66144;50.020;14.422;2023-04-16T02:14:40;98647.59;;;6.82;78.40
77171;BME280;66144;50.020;14.422;2023-04-16T02:17:06;98655.97;;;6.84;78.11
77171;BME280;66144;50.020;14.422;2023-04-16T02:19:31;98664.31;;;6.86;78.37
77171;BME280;66144;50.020;14.422;2023-04-16T02:21:56;98656.63;;;6.80;78.49
77171;BME280;66144;50.020;14.422;2023-04-16T02:24:22;98662.72;;;6.85;78.14
77171;BME280;66144;50.020;14.422;2023-04-16T02:26:47;98664.53;;;6.85;78.52
77171;BME280;66144;50.020;14.422;2023-04-16T02:29:12;98661.16;;;6.84;78.05
77171;BME280;66144;50.020;14.422;2023-04-16T02:31:38;98664.88;;;6.88;77.84
77171;BME280;66144;50.020;14.422;2023-04-16T02:34:04;98668.06;;;6.90;78.46
77171;BME280;66144;50.020;14.422;2023-04-16T02:36:30;98670.06;;;6.88;78.29
77171;BME280;66144;50.020;14.422;2023-04-16T02:38:56;98674.25;;;6.89;77.61
77171;BME280;66144;50.020;14.422;2023-04-16T02:41:22;98680.03;;;6.91;77.46
77171;BME280;66144;50.020;14.422;2023-04-16T02:43:47;98673.81;;;6.92;77.93
77171;BME280;66144;50.020;14.422;2023-04-16T02:46:12;98676.16;;;6.94;78.26
77171;BME280;66144;50.020;14.422;2023-04-16T02:48:38;98672.53;;;6.95;78.40
77171;BME280;66144;50.020;14.422;2023-04-16T02:51:04;98675.84;;;6.90;78.22
77171;BME280;66144;50.020;14.422;2023-04-16T02:53:29;98673.81;;;6.92;77.86
77171;BME280;66144;50.020;14.422;2023-04-16T02:55:55;98676.63;;;6.91;77.48
77171;BME280;66144;50.020;14.422;2023-04-16T02:58:21;98675.84;;;6.90;77.41
77171;BME280;66144;50.020;14.422;2023-04-16T03:00:46;98671.66;;;6.89;78.02
77171;BME280;66144;50.020;14.422;2023-04-16T03:03:12;98677.06;;;6.88;77.85
77171;BME280;66144;50.020;14.422;2023-04-16T03:05:37;98681.03;;;6.90;78.21
77171;BME280;66144;50.020;14.422;2023-04-16T03:08:03;98683.84;;;6.89;77.75
77171;BME280;66144;50.020;14.422;2023-04-16T03:10:29;98685.44;;;6.90;77.68
77171;BME280;66144;50.020;14.422;2023-04-16T03:12:54;98681.91;;;6.84;78.02
77171;BME280;66144;50.020;14.422;2023-04-16T03:15:19;98688.69;;;6.85;77.80
77171;BME280;66144;50.020;14.422;2023-04-16T03:17:45;98683.38;;;6.80;77.49
77171;BME280;66144;50.020;14.422;2023-04-16T03:20:10;98689.13;;;6.82;77.41
77171;BME280;66144;50.020;14.422;2023-04-16T03:22:37;98685.41;;;6.78;78.18
77171;BME280;66144;50.020;14.422;2023-04-16T03:25:02;98689.56;;;6.79;78.04
77171;BME280;66144;50.020;14.422;2023-04-16T03:27:28;98683.25;;;6.75;77.48
77171;BME280;66144;50.020;14.422;2023-04-16T03:29:53;98682.81;;;6.78;77.90
77171;BME280;66144;50.020;14.422;2023-04-16T03:32:18;98677.03;;;6.76;77.60
77171;BME280;66144;50.020;14.422;2023-04-16T03:34:44;98678.06;;;6.75;78.10
77171;BME280;66144;50.020;14.422;2023-04-16T03:37:09;98683.13;;;6.70;78.19
77171;BME280;66144;50.020;14.422;2023-04-16T03:39:36;98692.94;;;6.68;77.83
77171;BME280;66144;50.020;14.422;2023-04-16T03:42:01;98693.81;;;6.62;77.88
77171;BME280;66144;50.020;14.422;2023-04-16T03:44:28;98695.59;;;6.50;77.98
77171;BME280;66144;50.020;14.422;2023-04-16T03:46:53;98704.75;;;6.52;78.01
77171;BME280;66144;50.020;14.422;2023-04-16T03:49:18;98698.78;;;6.52;78.06
77171;BME280;66144;50.020;14.422;2023-04-16T03:51:44;98703.97;;;6.52;77.79
77171;BME280;66144;50.020;14.422;2023-04-16T03:54:09;98704.41;;;6.49;77.35
77171;BME280;66144;50.020;14.422;2023-04-16T03:56:34;98705.28;;;6.43;77.15
77171;BME280;66144;50.020;14.422;2023-04-16T03:59:00;98707.03;;;6.31;77.45
77171;BME280;66144;50.020;14.422;2023-04-16T04:01:25;98713.09;;;6.24;77.94
77171;BME280;66144;50.020;14.422;2023-04-16T04:03:50;98715.53;;;6.19;77.86
77171;BME280;66144;50.020;14.422;2023-04-16T04:06:15;98721.63;;;6.13;78.34
77171;BME280;66144;50.020;14.422;2023-04-16T04:08:41;98720.63;;;5.96;78.58
77171;BME280;66144;50.020;14.422;2023-04-16T04:11:06;98738.88;;;5.83;79.55
77171;BME280;66144;50.020;14.422;2023-04-16T04:13:32;98739.41;;;5.92;79.44
77171;BME280;66144;50.020;14.422;2023-04-16T04:15:57;98742.22;;;5.90;79.58
77171;BME280;66144;50.020;14.422;2023-04-16T04:18:22;98748.78;;;5.93;79.23
77171;BME280;66144;50.020;14.422;2023-04-16T04:20:48;98751.75;;;5.96;79.01
77171;BME280;66144;50.020;14.422;2023-04-16T04:23:13;98757.69;;;5.97;79.48
77171;BME280;66144;50.020;14.422;2023-04-16T04:25:38;98751.97;;;5.95;80.19
77171;BME280;66144;50.020;14.422;2023-04-16T04:28:03;98752.06;;;6.00;79.87
77171;BME280;66144;50.020;14.422;2023-04-16T04:30:29;98754.88;;;5.98;80.13
77171;BME280;66144;50.020;14.422;2023-04-16T04:32:54;98753.44;;;6.02;80.28
77171;BME280;66144;50.020;14.422;2023-04-16T04:35:20;98764.03;;;6.01;80.41
77171;BME280;66144;50.020;14.422;2023-04-16T04:37:45;98765.56;;;6.08;80.10
77171;BME280;66144;50.020;14.422;2023-04-16T04:40:11;98771.16;;;6.05;80.19
77171;BME280;66144;50.020;14.422;2023-04-16T04:42:36;98769.53;;;6.11;79.90
77171;BME280;66144;50.020;14.422;2023-04-16T04:45:02;98774.50;;;6.12;80.02
77171;BME280;66144;50.020;14.422;2023-04-16T04:47:28;98782.59;;;6.16;79.92
77171;BME280;66144;50.020;14.422;2023-04-16T04:49:53;98782.19;;;6.19;79.83
77171;BME280;66144;50.020;14.422;2023-04-16T04:52:18;98779.94;;;6.22;79.58
77171;BME280;66144;50.020;14.422;2023-04-16T04:54:44;98781.91;;;6.27;79.60
77171;BME280;66144;50.020;14.422;2023-04-16T04:57:09;98786.06;;;6.28;78.77
77171;BME280;66144;50.020;14.422;2023-04-16T04:59:35;98792.91;;;6.22;79.04
77171;BME280;66144;50.020;14.422;2023-04-16T05:02:00;98794.50;;;6.23;79.12
77171;BME280;66144;50.020;14.422;2023-04-16T05:04:27;98795.44;;;6.29;78.50
77171;BME280;66144;50.020;14.422;2023-04-16T05:06:53;98797.38;;;6.34;78.68
77171;BME280;66144;50.020;14.422;2023-04-16T05:09:18;98802.69;;;6.39;78.49
77171;BME280;66144;50.020;14.422;2023-04-16T05:11:43;98806.38;;;6.49;78.50
77171;BME280;66144;50.020;14.422;2023-04-16T05:14:09;98808.66;;;6.57;78.08
77171;BME280;66144;50.020;14.422;2023-04-16T05:16:35;98812.75;;;6.65;77.92
77171;BME280;66144;50.020;14.422;2023-04-16T05:19:01;98811.44;;;6.74;78.25
77171;BME280;66144;50.020;14.422;2023-04-16T05:21:26;98811.94;;;6.83;77.16
77171;BME280;66144;50.020;14.422;2023-04-16T05:23:52;98812.41;;;6.91;76.66
77171;BME280;66144;50.020;14.422;2023-04-16T05:26:17;98813.22;;;6.92;76.48
77171;BME280;66144;50.020;14.422;2023-04-16T05:28:42;98820.25;;;7.03;76.64
77171;BME280;66144;50.020;14.422;2023-04-16T05:31:08;98823.97;;;7.07;75.83
77171;BME280;66144;50.020;14.422;2023-04-16T05:33:33;98831.22;;;7.17;76.25
77171;BME280;66144;50.020;14.422;2023-04-16T05:35:58;98829.91;;;7.26;75.90
77171;BME280;66144;50.020;14.422;2023-04-16T05:38:24;98832.06;;;7.29;76.08
77171;BME280;66144;50.020;14.422;2023-04-16T05:40:49;98832.28;;;7.27;75.35
77171;BME280;66144;50.020;14.422;2023-04-16T05:43:15;98826.88;;;7.41;75.55
77171;BME280;66144;50.020;14.422;2023-04-16T05:45:40;98834.56;;;7.47;75.44
77171;BME280;66144;50.020;14.422;2023-04-16T05:48:06;98837.28;;;7.52;74.20
77171;BME280;66144;50.020;14.422;2023-04-16T05:50:33;98840.13;;;7.62;73.93
77171;BME280;66144;50.020;14.422;2023-04-16T05:52:59;98844.06;;;7.77;74.35
77171;BME280;66144;50.020;14.422;2023-04-16T05:55:25;98846.00;;;7.70;73.91
77171;BME280;66144;50.020;14.422;2023-04-16T05:57:50;98855.38;;;7.71;73.23
77171;BME280;66144;50.020;14.422;2023-04-16T06:00:15;98847.25;;;7.90;73.08
77171;BME280;66144;50.020;14.422;2023-04-16T06:02:41;98840.94;;;7.86;72.76
77171;BME280;66144;50.020;14.422;2023-04-16T06:05:06;98843.31;;;7.88;71.67
77171;BME280;66144;50.020;14.422;2023-04-16T06:07:32;98847.22;;;8.14;71.73
77171;BME280;66144;50.020;14.422;2023-04-16T06:09:57;98851.31;;;8.33;72.13
77171;BME280;66144;50.020;14.422;2023-04-16T06:12:22;98860.59;;;8.41;71.41
77171;BME280;66144;50.020;14.422;2023-04-16T06:14:48;98854.78;;;8.62;71.49
77171;BME280;66144;50.020;14.422;2023-04-16T06:17:13;98855.50;;;8.74;69.50
77171;BME280;66144;50.020;14.422;2023-04-16T06:19:38;98853.16;;;9.01;68.81
77171;BME280;66144;50.020;14.422;2023-04-16T06:22:05;98855.41;;;9.26;67.78
77171;BME280;66144;50.020;14.422;2023-04-16T06:24:30;98858.66;;;9.33;66.71
77171;BME280;66144;50.020;14.422;2023-04-16T06:26:56;98856.84;;;9.50;67.84
77171;BME280;66144;50.020;14.422;2023-04-16T06:29:21;98854.94;;;9.62;66.21
77171;BME280;66144;50.020;14.422;2023-04-16T06:31:47;98849.25;;;9.65;65.63
77171;BME280;66144;50.020;14.422;2023-04-16T06:34:12;98855.13;;;9.73;65.53
77171;BME280;66144;50.020;14.422;2023-04-16T06:36:38;98852.91;;;9.64;66.18
77171;BME280;66144;50.020;14.422;2023-04-16T06:39:03;98849.44;;;9.76;65.56
77171;BME280;66144;50.020;14.422;2023-04-16T06:41:29;98849.50;;;9.81;65.78
77171;BME280;66144;50.020;14.422;2023-04-16T06:43:54;98847.19;;;9.84;64.88
77171;BME280;66144;50.020;14.422;2023-04-16T06:46:20;98850.75;;;9.95;64.81
77171;BME280;66144;50.020;14.422;2023-04-16T06:48:45;98858.06;;;10.15;64.42
77171;BME280;66144;50.020;14.422;2023-04-16T06:51:11;98858.38;;;10.57;62.41
77171;BME280;66144;50.020;14.422;2023-04-16T06:53:37;98850.44;;;10.95;62.35
77171;BME280;66144;50.020;14.422;2023-04-16T06:56:03;98856.41;;;11.18;62.80
77171;BME280;66144;50.020;14.422;2023-04-16T06:58:28;98848.72;;;11.33;60.49
77171;BME280;66144;50.020;14.422;2023-04-16T07:00:54;98853.16;;;11.32;60.37
77171;BME280;66144;50.020;14.422;2023-04-16T07:03:19;98851.56;;;11.31;60.27
77171;BME280;66144;50.020;14.422;2023-04-16T07:05:45;98850.28;;;11.34;60.59
77171;BME280;66144;50.020;14.422;2023-04-16T07:08:10;98848.97;;;11.36;61.05
77171;BME280;66144;50.020;14.422;2023-04-16T07:10:35;98856.50;;;11.28;60.75
77171;BME280;66144;50.020;14.422;2023-04-16T07:13:01;98851.28;;;11.28;60.22
77171;BME280;66144;50.020;14.422;2023-04-16T07:15:27;98856.81;;;11.31;60.22
77171;BME280;66144;50.020;14.422;2023-04-16T07:17:52;98856.81;;;11.31;60.71
77171;BME280;66144;50.020;14.422;2023-04-16T07:20:18;98861.81;;;11.38;60.17
77171;BME280;66144;50.020;14.422;2023-04-16T07:22:43;98864.47;;;11.43;61.23
77171;BME280;66144;50.020;14.422;2023-04-16T07:25:09;98864.28;;;11.50;60.20
77171;BME280;66144;50.020;14.422;2023-04-16T07:27:34;98873.72;;;11.51;61.44
77171;BME280;66144;50.020;14.422;2023-04-16T07:30:00;98873.53;;;11.62;60.01
77171;BME280;66144;50.020;14.422;2023-04-16T07:32:25;98873.47;;;11.57;59.62
77171;BME280;66144;50.020;14.422;2023-04-16T07:34:50;98876.09;;;11.57;60.09
77171;BME280;66144;50.020;14.422;2023-04-16T07:37:16;98887.34;;;11.53;60.44
77171;BME280;66144;50.020;14.422;2023-04-16T07:39:41;98881.34;;;11.57;61.08
77171;BME280;66144;50.020;14.422;2023-04-16T07:42:06;98889.44;;;11.56;60.07
77171;BME280;66144;50.020;14.422;2023-04-16T07:44:32;98893.00;;;11.45;60.21
77171;BME280;66144;50.020;14.422;2023-04-16T07:46:57;98893.78;;;11.45;59.90
77171;BME280;66144;50.020;14.422;2023-04-16T07:49:23;98893.19;;;11.38;61.05
77171;BME280;66144;50.020;14.422;2023-04-16T07:51:48;98893.59;;;11.52;60.72
77171;BME280;66144;50.020;14.422;2023-04-16T07:54:13;98897.13;;;11.67;60.63
77171;BME280;66144;50.020;14.422;2023-04-16T07:56:39;98902.84;;;11.64;60.13
77171;BME280;66144;50.020;14.422;2023-04-16T07:59:04;98904.03;;;11.79;59.99
77171;BME280;66144;50.020;14.422;2023-04-16T08:01:30;98911.44;;;11.87;59.47
77171;BME280;66144;50.020;14.422;2023-04-16T08:03:55;98906.75;;;11.94;59.10
77171;BME280;66144;50.020;14.422;2023-04-16T08:06:21;98911.28;;;12.03;59.04
77171;BME280;66144;50.020;14.422;2023-04-16T08:08:46;98908.78;;;12.19;59.47
77171;BME280;66144;50.020;14.422;2023-04-16T08:11:12;98905.44;;;12.33;59.30
77171;BME280;66144;50.020;14.422;2023-04-16T08:13:37;98903.31;;;12.25;58.31
77171;BME280;66144;50.020;14.422;2023-04-16T08:16:02;98898.91;;;12.36;58.24
77171;BME280;66144;50.020;14.422;2023-04-16T08:18:28;98899.78;;;12.47;57.73
77171;BME280;66144;50.020;14.422;2023-04-16T08:20:53;98908.91;;;12.44;57.27
77171;BME280;66144;50.020;14.422;2023-04-16T08:23:19;98905.81;;;12.52;57.54
77171;BME280;66144;50.020;14.422;2023-04-16T08:25:46;98908.97;;;12.49;57.94
77171;BME280;66144;50.020;14.422;2023-04-16T08:28:11;98912.88;;;12.52;58.47
77171;BME280;66144;50.020;14.422;2023-04-16T08:30:37;98909.75;;;12.55;58.49
77171;BME280;66144;50.020;14.422;2023-04-16T08:33:02;98916.03;;;12.54;58.55
77171;BME280;66144;50.020;14.422;2023-04-16T08:35:27;98919.06;;;12.35;57.44
77171;BME280;66144;50.020;14.422;2023-04-16T08:37:53;98913.41;;;12.49;58.19
77171;BME280;66144;50.020;14.422;2023-04-16T08:40:18;98916.59;;;12.61;58.20
77171;BME280;66144;50.020;14.422;2023-04-16T08:42:47;98922.38;;;12.63;58.95
77171;BME280;66144;50.020;14.422;2023-04-16T08:45:17;98925.28;;;12.71;57.83
77171;BME280;66144;50.020;14.422;2023-04-16T08:47:45;98923.44;;;12.67;56.70
77171;BME280;66144;50.020;14.422;2023-04-16T08:50:13;98929.78;;;12.81;56.95
77171;BME280;66144;50.020;14.422;2023-04-16T08:53:06;98925.13;;;12.88;56.39
77171;BME280;66144;50.020;14.422;2023-04-16T08:55:44;98928.59;;;13.14;55.71
77171;BME280;66144;50.020;14.422;2023-04-16T08:58:17;98924.72;;;13.27;54.84
77171;BME280;66144;50.020;14.422;2023-04-16T09:00:43;98932.59;;;13.32;55.75
77171;BME280;66144;50.020;14.422;2023-04-16T09:03:10;98925.28;;;13.39;55.29
77171;BME280;66144;50.020;14.422;2023-04-16T09:05:36;98930.00;;;13.42;54.85
77171;BME280;66144;50.020;14.422;2023-04-16T09:08:01;98936.06;;;13.63;55.25
77171;BME280;66144;50.020;14.422;2023-04-16T09:10:27;98931.88;;;13.82;55.28
77171;BME280;66144;50.020;14.422;2023-04-16T09:12:56;98928.44;;;13.97;55.21
77171;BME280;66144;50.020;14.422;2023-04-16T09:15:21;98938.44;;;14.00;54.37
77171;BME280;66144;50.020;14.422;2023-04-16T09:17:47;98940.78;;;14.22;54.51
77171;BME280;66144;50.020;14.422;2023-04-16T09:20:14;98940.00;;;14.41;53.91
77171;BME280;66144;50.020;14.422;2023-04-16T09:22:40;98946.25;;;14.56;52.96
77171;BME280;66144;50.020;14.422;2023-04-16T09:25:06;98939.88;;;14.72;51.44
77171;BME280;66144;50.020;14.422;2023-04-16T09:27:31;98940.09;;;14.85;52.60
77171;BME280;66144;50.020;14.422;2023-04-16T09:29:57;98941.34;;;15.03;52.00
77171;BME280;66144;50.020;14.422;2023-04-16T09:32:27;98945.03;;;15.02;49.69
77171;BME280;66144;50.020;14.422;2023-04-16T09:34:56;98933.13;;;15.15;49.87
77171;BME280;66144;50.020;14.422;2023-04-16T09:37:22;98941.66;;;15.41;49.90
77171;BME280;66144;50.020;14.422;2023-04-16T09:39:58;98940.41;;;15.28;48.18
77171;BME280;66144;50.020;14.422;2023-04-16T09:42:26;98940.56;;;15.47;48.03
77171;BME280;66144;50.020;14.422;2023-04-16T09:44:52;98945.91;;;15.37;49.65
77171;BME280;66144;50.020;14.422;2023-04-16T09:47:18;98940.22;;;15.64;49.03
77171;BME280;66144;50.020;14.422;2023-04-16T09:49:43;98944.03;;;15.81;49.66
77171;BME280;66144;50.020;14.422;2023-04-16T09:52:18;98944.00;;;15.86;48.40
77171;BME280;66144;50.020;14.422;2023-04-16T09:54:51;98945.00;;;15.96;48.10
77171;BME280;66144;50.020;14.422;2023-04-16T09:57:22;98942.84;;;15.98;47.75
77171;BME280;66144;50.020;14.422;2023-04-16T09:59:51;98936.94;;;16.11;47.43
77171;BME280;66144;50.020;14.422;2023-04-16T10:02:17;98939.19;;;16.22;47.79
77171;BME280;66144;50.020;14.422;2023-04-16T10:04:50;98939.28;;;16.41;48.19
77171;BME280;66144;50.020;14.422;2023-04-16T10:07:16;98942.63;;;16.52;47.50
77171;BME280;66144;50.020;14.422;2023-04-16T10:09:41;98937.41;;;16.71;46.98
77171;BME280;66144;50.020;14.422;2023-04-16T10:12:07;98936.72;;;16.84;46.32
77171;BME280;66144;50.020;14.422;2023-04-16T10:14:32;98934.53;;;16.91;45.04
77171;BME280;66144;50.020;14.422;2023-04-16T10:16:59;98940.81;;;17.14;45.03
77171;BME280;66144;50.020;14.422;2023-04-16T10:19:26;98946.44;;;17.50;45.67
77171;BME280;66144;50.020;14.422;2023-04-16T10:21:52;98951.84;;;17.40;46.52
77171;BME280;66144;50.020;14.422;2023-04-16T10:24:17;98945.38;;;18.02;42.46
77171;BME280;66144;50.020;14.422;2023-04-16T10:26:43;98949.16;;;18.42;44.33
77171;BME280;66144;50.020;14.422;2023-04-16T10:29:10;98950.16;;;18.74;42.45
77171;BME280;66144;50.020;14.422;2023-04-16T10:31:36;98944.28;;;18.77;40.28
77171;BME280;66144;50.020;14.422;2023-04-16T10:34:03;98947.31;;;18.56;41.36
77171;BME280;66144;50.020;14.422;2023-04-16T10:36:29;98951.03;;;18.55;39.39
77171;BME280;66144;50.020;14.422;2023-04-16T10:38:59;98947.19;;;17.88;40.10
77171;BME280;66144;50.020;14.422;2023-04-16T10:41:25;98940.63;;;17.85;40.26
77171;BME280;66144;50.020;14.422;2023-04-16T10:43:51;98944.19;;;17.76;40.33
77171;BME280;66144;50.020;14.422;2023-04-16T10:46:24;98952.19;;;17.89;41.74
77171;BME280;66144;50.020;14.422;2023-04-16T10:48:54;98953.63;;;17.63;42.26
77171;BME280;66144;50.020;14.422;2023-04-16T10:51:31;98952.19;;;17.52;40.64
77171;BME280;66144;50.020;14.422;2023-04-16T10:54:03;98948.69;;;17.38;41.55
77171;BME280;66144;50.020;14.422;2023-04-16T10:56:31;98951.81;;;17.21;43.40
77171;BME280;66144;50.020;14.422;2023-04-16T10:58:57;98952.25;;;17.09;44.61
77171;BME280;66144;50.020;14.422;2023-04-16T11:01:31;98949.53;;;17.14;43.65
77171;BME280;66144;50.020;14.422;2023-04-16T11:06:59;98947.91;;;16.76;43.63
77171;BME280;66144;50.020;14.422;2023-04-16T11:15:12;98940.84;;;17.33;40.99
77171;BME280;66144;50.020;14.422;2023-04-16T11:17:41;98953.16;;;17.93;42.27
77171;BME280;66144;50.020;14.422;2023-04-16T11:20:09;98941.03;;;18.39;41.61
77171;BME280;66144;50.020;14.422;2023-04-16T11:22:39;98945.94;;;18.73;39.64
77171;BME280;66144;50.020;14.422;2023-04-16T11:25:04;98946.03;;;18.68;40.00
77171;BME280;66144;50.020;14.422;2023-04-16T11:27:30;98942.38;;;19.18;37.27
77171;BME280;66144;50.020;14.422;2023-04-16T11:30:00;98939.44;;;19.56;39.40
77171;BME280;66144;50.020;14.422;2023-04-16T11:32:26;98950.41;;;19.63;37.54
77171;BME280;66144;50.020;14.422;2023-04-16T11:34:51;98946.09;;;19.17;38.95
77171;BME280;66144;50.020;14.422;2023-04-16T11:37:20;98949.00;;;18.80;39.19
77171;BME280;66144;50.020;14.422;2023-04-16T11:39:50;98949.88;;;18.61;38.64
77171;BME280;66144;50.020;14.422;2023-04-16T11:42:20;98950.59;;;18.35;40.27
77171;BME280;66144;50.020;14.422;2023-04-16T11:44:55;98947.97;;;18.48;40.91
77171;BME280;66144;50.020;14.422;2023-04-16T11:47:23;98948.09;;;18.57;40.36
77171;BME280;66144;50.020;14.422;2023-04-16T11:49:49;98952.81;;;18.74;39.95
77171;BME280;66144;50.020;14.422;2023-04-16T11:54:51;98953.00;;;18.77;38.36
77171;BME280;66144;50.020;14.422;2023-04-16T11:57:23;98948.69;;;18.95;37.24
77171;BME280;66144;50.020;14.422;2023-04-16T11:59:49;98941.03;;;19.43;36.90
77171;BME280;66144;50.020;14.422;2023-04-16T12:02:14;98936.50;;;19.44;37.09
77171;BME280;66144;50.020;14.422;2023-04-16T12:04:40;98933.38;;;19.78;37.55
77171;BME280;66144;50.020;14.422;2023-04-16T12:07:10;98941.19;;;19.83;37.58
77171;BME280;66144;50.020;14.422;2023-04-16T12:09:37;98930.66;;;19.91;36.48
77171;BME280;66144;50.020;14.422;2023-04-16T12:12:03;98930.13;;;20.12;36.14
77171;BME280;66144;50.020;14.422;2023-04-16T12:14:30;98933.16;;;20.19;35.54
77171;BME280;66144;50.020;14.422;2023-04-16T12:17:15;98938.91;;;20.21;35.86
77171;BME280;66144;50.020;14.422;2023-04-16T12:22:15;98935.84;;;19.96;38.85
77171;BME280;66144;50.020;14.422;2023-04-16T12:24:41;98933.28;;;19.91;38.27
77171;BME280;66144;50.020;14.422;2023-04-16T12:27:06;98938.13;;;19.89;37.05
77171;BME280;66144;50.020;14.422;2023-04-16T12:29:33;98933.00;;;19.93;36.99
77171;BME280;66144;50.020;14.422;2023-04-16T12:31:58;98927.31;;;19.86;35.63
77171;BME280;66144;50.020;14.422;2023-04-16T12:34:24;98935.47;;;19.67;36.30
77171;BME280;66144;50.020;14.422;2023-04-16T12:37:05;98935.81;;;19.52;36.28
77171;BME280;66144;50.020;14.422;2023-04-16T12:39:32;98937.94;;;19.63;38.25
77171;BME280;66144;50.020;14.422;2023-04-16T12:41:57;98938.91;;;19.31;36.39
77171;BME280;66144;50.020;14.422;2023-04-16T12:44:22;98936.84;;;19.28;36.63
77171;BME280;66144;50.020;14.422;2023-04-16T12:46:48;98940.06;;;19.39;38.81
77171;BME280;66144;50.020;14.422;2023-04-16T12:49:13;98944.63;;;19.11;36.82
77171;BME280;66144;50.020;14.422;2023-04-16T12:51:38;98941.03;;;18.93;36.43
77171;BME280;66144;50.020;14.422;2023-04-16T12:54:05;98935.06;;;18.88;36.46
77171;BME280;66144;50.020;14.422;2023-04-16T12:56:34;98936.56;;;18.07;37.54
77171;BME280;66144;50.020;14.422;2023-04-16T12:59:00;98940.16;;;18.71;38.78
77171;BME280;66144;50.020;14.422;2023-04-16T13:01:26;98932.78;;;18.40;37.56
77171;BME280;66144;50.020;14.422;2023-04-16T13:03:51;98932.72;;;18.59;38.72